sensor_id;sensor_type;location;lat;lon;timestamp;P1;durP1;ratioP1;P2;durP2;ratioP2
11222;SDS011;5668;52.012;8.724;2023-04-06T00:00:48;6.93;;;5.63;;
11222;SDS011;5668;52.012;8.724;2023-04-06T00:03:15;6.00;;;5.43;;
11222;SDS011;5668;52.012;8.724;2023-04-06T00:05:44;6.13;;;5.53;;
11222;SDS011;5668;52.012;8.724;2023-04-06T00:08:13;6.33;;;5.70;;
11222;SDS011;5668;52.012;8.724;2023-04-06T00:10:41;6.13;;;5.50;;
11222;SDS011;5668;52.012;8.724;2023-04-06T00:13:09;5.87;;;5.37;;
11222;SDS011;5668;52.012;8.724;2023-04-06T00:15:37;5.80;;;5.07;;
11222;SDS011;5668;52.012;8.724;2023-04-06T00:18:04;6.17;;;5.00;;
11222;SDS011;5668;52.012;8.724;2023-04-06T00:20:32;5.87;;;5.27;;
11222;SDS011;5668;52.012;8.724;2023-04-06T00:22:59;5.97;;;5.43;;
11222;SDS011;5668;52.012;8.724;2023-04-06T00:25:26;6.67;;;5.50;;
11222;SDS011;5668;52.012;8.724;2023-04-06T00:27:56;5.17;;;4.77;;
11222;SDS011;5668;52.012;8.724;2023-04-06T00:30:24;5.77;;;5.27;;
11222;SDS011;5668;52.012;8.724;2023-04-06T00:32:51;5.80;;;5.20;;
11222;SDS011;5668;52.012;8.724;2023-04-06T00:35:18;6.13;;;5.57;;
11222;SDS011;5668;52.012;8.724;2023-04-06T00:37:46;7.33;;;5.43;;
11222;SDS011;5668;52.012;8.724;2023-04-06T00:40:14;6.03;;;5.43;;
11222;SDS011;5668;52.012;8.724;2023-04-06T00:42:42;6.00;;;5.40;;
11222;SDS011;5668;52.012;8.724;2023-04-06T00:45:11;5.87;;;5.37;;
11222;SDS011;5668;52.012;8.724;2023-04-06T00:47:38;6.80;;;5.67;;
11222;SDS011;5668;52.012;8.724;2023-04-06T00:50:06;6.30;;;5.70;;
11222;SDS011;5668;52.012;8.724;2023-04-06T00:52:35;5.63;;;5.13;;
11222;SDS011;5668;52.012;8.724;2023-04-06T00:55:03;6.87;;;5.27;;
11222;SDS011;5668;52.012;8.724;2023-04-06T00:57:31;5.53;;;5.00;;
11222;SDS011;5668;52.012;8.724;2023-04-06T00:59:58;6.27;;;5.50;;
11222;SDS011;5668;52.012;8.724;2023-04-06T01:02:27;6.57;;;5.60;;
11222;SDS011;5668;52.012;8.724;2023-04-06T01:04:54;6.70;;;5.37;;
11222;SDS011;5668;52.012;8.724;2023-04-06T01:07:22;6.17;;;5.13;;
11222;SDS011;5668;52.012;8.724;2023-04-06T01:09:52;5.53;;;5.03;;
11222;SDS011;5668;52.012;8.724;2023-04-06T01:12:20;6.47;;;5.17;;
11222;SDS011;5668;52.012;8.724;2023-04-06T01:14:47;5.20;;;4.70;;
11222;SDS011;5668;52.012;8.724;2023-04-06T01:17:14;5.20;;;4.70;;
11222;SDS011;5668;52.012;8.724;2023-04-06T01:19:44;5.60;;;5.07;;
11222;SDS011;5668;52.012;8.724;2023-04-06T01:22:15;5.60;;;5.00;;
11222;SDS011;5668;52.012;8.724;2023-04-06T01:24:42;6.03;;;4.83;;
11222;SDS011;5668;52.012;8.724;2023-04-06T01:27:10;5.97;;;5.30;;
11222;SDS011;5668;52.012;8.724;2023-04-06T01:29:37;5.90;;;5.30;;
11222;SDS011;5668;52.012;8.724;2023-04-06T01:32:06;5.33;;;4.83;;
11222;SDS011;5668;52.012;8.724;2023-04-06T01:34:34;5.70;;;5.03;;
11222;SDS011;5668;52.012;8.724;2023-04-06T01:37:01;6.83;;;5.50;;
11222;SDS011;5668;52.012;8.724;2023-04-06T01:39:30;6.17;;;5.50;;
11222;SDS011;5668;52.012;8.724;2023-04-06T01:41:57;5.83;;;5.23;;
11222;SDS011;5668;52.012;8.724;2023-04-06T01:44:25;5.37;;;4.87;;
11222;SDS011;5668;52.012;8.724;2023-04-06T01:46:52;5.90;;;5.00;;
11222;SDS011;5668;52.012;8.724;2023-04-06T01:49:20;6.93;;;5.03;;
11222;SDS011;5668;52.012;8.724;2023-04-06T01:51:47;6.90;;;5.47;;
11222;SDS011;5668;52.012;8.724;2023-04-06T01:54:15;5.67;;;5.13;;
11222;SDS011;5668;52.012;8.724;2023-04-06T01:56:44;6.33;;;5.17;;
11222;SDS011;5668;52.012;8.724;2023-04-06T01:59:11;5.70;;;5.13;;
11222;SDS011;5668;52.012;8.724;2023-04-06T02:01:39;5.90;;;5.40;;
11222;SDS011;5668;52.012;8.724;2023-04-06T02:04:06;6.33;;;4.93;;
11222;SDS011;5668;52.012;8.724;2023-04-06T02:06:33;6.10;;;5.50;;
11222;SDS011;5668;52.012;8.724;2023-04-06T02:09:01;6.63;;;5.67;;
11222;SDS011;5668;52.012;8.724;2023-04-06T02:11:28;7.80;;;5.67;;
11222;SDS011;5668;52.012;8.724;2023-04-06T02:13:57;6.47;;;5.20;;
11222;SDS011;5668;52.012;8.724;2023-04-06T02:16:25;7.23;;;5.70;;
11222;SDS011;5668;52.012;8.724;2023-04-06T02:18:53;5.67;;;5.03;;
11222;SDS011;5668;52.012;8.724;2023-04-06T02:21:20;5.87;;;5.27;;
11222;SDS011;5668;52.012;8.724;2023-04-06T02:23:48;6.03;;;5.43;;
11222;SDS011;5668;52.012;8.724;2023-04-06T02:26:15;6.10;;;5.50;;
11222;SDS011;5668;52.012;8.724;2023-04-06T02:28:43;6.40;;;5.50;;
11222;SDS011;5668;52.012;8.724;2023-04-06T02:31:11;6.30;;;5.70;;
11222;SDS011;5668;52.012;8.724;2023-04-06T02:33:39;5.83;;;5.23;;
11222;SDS011;5668;52.012;8.724;2023-04-06T02:36:07;7.20;;;5.37;;
11222;SDS011;5668;52.012;8.724;2023-04-06T02:38:34;6.10;;;5.27;;
11222;SDS011;5668;52.012;8.724;2023-04-06T02:41:02;5.17;;;4.60;;
11222;SDS011;5668;52.012;8.724;2023-04-06T02:43:29;5.80;;;4.97;;
11222;SDS011;5668;52.012;8.724;2023-04-06T02:45:56;5.90;;;5.40;;
11222;SDS011;5668;52.012;8.724;2023-04-06T02:48:25;5.90;;;5.40;;
11222;SDS011;5668;52.012;8.724;2023-04-06T02:50:52;5.70;;;5.17;;
11222;SDS011;5668;52.012;8.724;2023-04-06T02:53:19;5.57;;;5.07;;
11222;SDS011;5668;52.012;8.724;2023-04-06T02:55:47;5.50;;;4.97;;
11222;SDS011;5668;52.012;8.724;2023-04-06T02:58:14;5.80;;;5.20;;
11222;SDS011;5668;52.012;8.724;2023-04-06T03:00:41;5.93;;;5.33;;
11222;SDS011;5668;52.012;8.724;2023-04-06T03:03:08;6.57;;;5.87;;
11222;SDS011;5668;52.012;8.724;2023-04-06T03:05:37;7.50;;;5.77;;
11222;SDS011;5668;52.012;8.724;2023-04-06T03:08:05;6.80;;;5.90;;
11222;SDS011;5668;52.012;8.724;2023-04-06T03:10:32;9.40;;;6.10;;
11222;SDS011;5668;52.012;8.724;2023-04-06T03:12:59;6.93;;;5.93;;
11222;SDS011;5668;52.012;8.724;2023-04-06T03:15:27;6.07;;;5.57;;
11222;SDS011;5668;52.012;8.724;2023-04-06T03:17:54;7.77;;;6.73;;
11222;SDS011;5668;52.012;8.724;2023-04-06T03:20:21;6.33;;;5.80;;
11222;SDS011;5668;52.012;8.724;2023-04-06T03:22:50;7.07;;;6.37;;
11222;SDS011;5668;52.012;8.724;2023-04-06T03:25:17;7.07;;;5.97;;
11222;SDS011;5668;52.012;8.724;2023-04-06T03:27:45;8.07;;;6.40;;
11222;SDS011;5668;52.012;8.724;2023-04-06T03:30:12;7.63;;;6.37;;
11222;SDS011;5668;52.012;8.724;2023-04-06T03:32:41;7.53;;;6.50;;
11222;SDS011;5668;52.012;8.724;2023-04-06T03:35:08;7.23;;;6.53;;
11222;SDS011;5668;52.012;8.724;2023-04-06T03:37:36;6.77;;;6.10;;
11222;SDS011;5668;52.012;8.724;2023-04-06T03:40:05;7.17;;;6.47;;
11222;SDS011;5668;52.012;8.724;2023-04-06T03:42:34;7.07;;;6.23;;
11222;SDS011;5668;52.012;8.724;2023-04-06T03:45:02;7.67;;;6.20;;
11222;SDS011;5668;52.012;8.724;2023-04-06T03:47:30;7.27;;;6.60;;
11222;SDS011;5668;52.012;8.724;2023-04-06T03:49:57;7.93;;;7.00;;
11222;SDS011;5668;52.012;8.724;2023-04-06T03:52:24;7.20;;;6.50;;
11222;SDS011;5668;52.012;8.724;2023-04-06T03:54:52;7.13;;;6.43;;
11222;SDS011;5668;52.012;8.724;2023-04-06T03:57:20;7.10;;;6.40;;
11222;SDS011;5668;52.012;8.724;2023-04-06T03:59:48;7.57;;;6.77;;
11222;SDS011;5668;52.012;8.724;2023-04-06T04:02:15;6.60;;;6.00;;
11222;SDS011;5668;52.012;8.724;2023-04-06T04:04:42;7.07;;;6.37;;
11222;SDS011;5668;52.012;8.724;2023-04-06T04:07:10;6.63;;;6.03;;
11222;SDS011;5668;52.012;8.724;2023-04-06T04:09:38;6.73;;;6.13;;
11222;SDS011;5668;52.012;8.724;2023-04-06T04:12:06;7.37;;;6.03;;
11222;SDS011;5668;52.012;8.724;2023-04-06T04:14:34;7.90;;;7.10;;
11222;SDS011;5668;52.012;8.724;2023-04-06T04:17:02;6.90;;;6.20;;
11222;SDS011;5668;52.012;8.724;2023-04-06T04:19:29;7.53;;;6.83;;
11222;SDS011;5668;52.012;8.724;2023-04-06T04:21:56;9.20;;;6.70;;
11222;SDS011;5668;52.012;8.724;2023-04-06T04:24:23;7.70;;;6.90;;
11222;SDS011;5668;52.012;8.724;2023-04-06T04:26:51;7.23;;;6.53;;
11222;SDS011;5668;52.012;8.724;2023-04-06T04:29:18;7.03;;;6.33;;
11222;SDS011;5668;52.012;8.724;2023-04-06T04:31:48;10.00;;;7.50;;
11222;SDS011;5668;52.012;8.724;2023-04-06T04:34:17;7.33;;;6.63;;
11222;SDS011;5668;52.012;8.724;2023-04-06T04:36:45;8.87;;;7.70;;
11222;SDS011;5668;52.012;8.724;2023-04-06T04:39:13;7.73;;;7.03;;
11222;SDS011;5668;52.012;8.724;2023-04-06T04:41:40;8.03;;;7.23;;
11222;SDS011;5668;52.012;8.724;2023-04-06T04:44:07;6.77;;;6.17;;
11222;SDS011;5668;52.012;8.724;2023-04-06T04:46:35;7.03;;;6.43;;
11222;SDS011;5668;52.012;8.724;2023-04-06T04:49:03;7.67;;;6.90;;
11222;SDS011;5668;52.012;8.724;2023-04-06T04:51:30;7.93;;;7.13;;
11222;SDS011;5668;52.012;8.724;2023-04-06T04:53:58;7.30;;;6.60;;
11222;SDS011;5668;52.012;8.724;2023-04-06T04:56:26;7.73;;;6.93;;
11222;SDS011;5668;52.012;8.724;2023-04-06T04:58:54;7.33;;;6.57;;
11222;SDS011;5668;52.012;8.724;2023-04-06T05:01:21;8.37;;;7.13;;
11222;SDS011;5668;52.012;8.724;2023-04-06T05:03:49;7.60;;;6.87;;
11222;SDS011;5668;52.012;8.724;2023-04-06T05:06:18;9.17;;;7.00;;
11222;SDS011;5668;52.012;8.724;2023-04-06T05:08:45;7.13;;;6.43;;
11222;SDS011;5668;52.012;8.724;2023-04-06T05:11:12;7.53;;;6.80;;
11222;SDS011;5668;52.012;8.724;2023-04-06T05:13:40;8.13;;;6.53;;
11222;SDS011;5668;52.012;8.724;2023-04-06T05:16:07;8.77;;;6.63;;
11222;SDS011;5668;52.012;8.724;2023-04-06T05:18:34;8.17;;;6.60;;
11222;SDS011;5668;52.012;8.724;2023-04-06T05:21:02;7.80;;;7.10;;
11222;SDS011;5668;52.012;8.724;2023-04-06T05:23:30;8.73;;;7.27;;
11222;SDS011;5668;52.012;8.724;2023-04-06T05:25:58;8.20;;;7.40;;
11222;SDS011;5668;52.012;8.724;2023-04-06T05:28:25;8.03;;;7.27;;
11222;SDS011;5668;52.012;8.724;2023-04-06T05:30:52;9.70;;;7.13;;
11222;SDS011;5668;52.012;8.724;2023-04-06T05:33:20;8.83;;;7.27;;
11222;SDS011;5668;52.012;8.724;2023-04-06T05:35:47;8.60;;;7.53;;
11222;SDS011;5668;52.012;8.724;2023-04-06T05:38:14;7.10;;;6.37;;
11222;SDS011;5668;52.012;8.724;2023-04-06T05:40:43;7.47;;;6.77;;
11222;SDS011;5668;52.012;8.724;2023-04-06T05:43:10;8.17;;;6.47;;
11222;SDS011;5668;52.012;8.724;2023-04-06T05:45:38;8.73;;;7.03;;
11222;SDS011;5668;52.012;8.724;2023-04-06T05:48:05;8.67;;;7.07;;
11222;SDS011;5668;52.012;8.724;2023-04-06T05:50:33;9.57;;;7.57;;
11222;SDS011;5668;52.012;8.724;2023-04-06T05:53:00;8.33;;;7.17;;
11222;SDS011;5668;52.012;8.724;2023-04-06T05:55:27;8.43;;;7.10;;
11222;SDS011;5668;52.012;8.724;2023-04-06T05:57:56;8.00;;;7.20;;
11222;SDS011;5668;52.012;8.724;2023-04-06T06:00:23;7.73;;;7.03;;
11222;SDS011;5668;52.012;8.724;2023-04-06T06:02:51;7.57;;;6.60;;
11222;SDS011;5668;52.012;8.724;2023-04-06T06:05:18;8.03;;;7.33;;
11222;SDS011;5668;52.012;8.724;2023-04-06T06:07:45;9.33;;;7.27;;
11222;SDS011;5668;52.012;8.724;2023-04-06T06:10:13;8.20;;;7.40;;
11222;SDS011;5668;52.012;8.724;2023-04-06T06:12:44;8.13;;;7.30;;
11222;SDS011;5668;52.012;8.724;2023-04-06T06:15:12;8.30;;;7.60;;
11222;SDS011;5668;52.012;8.724;2023-04-06T06:17:40;8.67;;;7.37;;
11222;SDS011;5668;52.012;8.724;2023-04-06T06:20:08;8.87;;;7.73;;
11222;SDS011;5668;52.012;8.724;2023-04-06T06:22:37;9.30;;;7.53;;
11222;SDS011;5668;52.012;8.724;2023-04-06T06:25:05;9.23;;;8.33;;
11222;SDS011;5668;52.012;8.724;2023-04-06T06:27:32;8.60;;;7.80;;
11222;SDS011;5668;52.012;8.724;2023-04-06T06:30:00;9.13;;;8.20;;
11222;SDS011;5668;52.012;8.724;2023-04-06T06:32:28;9.10;;;8.20;;
11222;SDS011;5668;52.012;8.724;2023-04-06T06:34:59;8.40;;;7.60;;
11222;SDS011;5668;52.012;8.724;2023-04-06T06:37:26;9.00;;;8.10;;
11222;SDS011;5668;52.012;8.724;2023-04-06T06:39:54;9.67;;;8.10;;
11222;SDS011;5668;52.012;8.724;2023-04-06T06:42:21;9.20;;;8.20;;
11222;SDS011;5668;52.012;8.724;2023-04-06T06:44:48;11.87;;;8.90;;
11222;SDS011;5668;52.012;8.724;2023-04-06T06:47:16;9.60;;;8.60;;
11222;SDS011;5668;52.012;8.724;2023-04-06T06:49:44;8.97;;;8.17;;
11222;SDS011;5668;52.012;8.724;2023-04-06T06:52:11;10.63;;;8.63;;
11222;SDS011;5668;52.012;8.724;2023-04-06T06:54:39;9.10;;;8.20;;
11222;SDS011;5668;52.012;8.724;2023-04-06T06:57:06;10.37;;;9.07;;
11222;SDS011;5668;52.012;8.724;2023-04-06T06:59:34;8.83;;;7.93;;
11222;SDS011;5668;52.012;8.724;2023-04-06T07:02:01;9.73;;;8.83;;
11222;SDS011;5668;52.012;8.724;2023-04-06T07:04:28;8.97;;;8.07;;
11222;SDS011;5668;52.012;8.724;2023-04-06T07:06:57;9.90;;;8.07;;
11222;SDS011;5668;52.012;8.724;2023-04-06T07:09:24;10.00;;;9.00;;
11222;SDS011;5668;52.012;8.724;2023-04-06T07:11:52;10.30;;;8.13;;
11222;SDS011;5668;52.012;8.724;2023-04-06T07:14:19;8.63;;;7.80;;
11222;SDS011;5668;52.012;8.724;2023-04-06T07:16:46;9.63;;;8.63;;
11222;SDS011;5668;52.012;8.724;2023-04-06T07:19:15;9.50;;;8.60;;
11222;SDS011;5668;52.012;8.724;2023-04-06T07:21:42;9.67;;;8.67;;
11222;SDS011;5668;52.012;8.724;2023-04-06T07:24:11;11.30;;;8.53;;
11222;SDS011;5668;52.012;8.724;2023-04-06T07:26:38;9.00;;;8.20;;
11222;SDS011;5668;52.012;8.724;2023-04-06T07:29:05;12.93;;;8.47;;
11222;SDS011;5668;52.012;8.724;2023-04-06T07:31:33;9.23;;;8.23;;
11222;SDS011;5668;52.012;8.724;2023-04-06T07:34:01;10.33;;;8.40;;
11222;SDS011;5668;52.012;8.724;2023-04-06T07:36:28;9.10;;;8.30;;
11222;SDS011;5668;52.012;8.724;2023-04-06T07:38:56;8.60;;;7.80;;
11222;SDS011;5668;52.012;8.724;2023-04-06T07:41:24;8.73;;;7.63;;
11222;SDS011;5668;52.012;8.724;2023-04-06T07:43:52;9.17;;;7.50;;
11222;SDS011;5668;52.012;8.724;2023-04-06T07:46:19;8.00;;;7.20;;
11222;SDS011;5668;52.012;8.724;2023-04-06T07:48:46;8.60;;;7.47;;
11222;SDS011;5668;52.012;8.724;2023-04-06T07:51:15;8.00;;;7.10;;
11222;SDS011;5668;52.012;8.724;2023-04-06T07:53:43;7.70;;;6.90;;
11222;SDS011;5668;52.012;8.724;2023-04-06T07:56:11;9.20;;;7.43;;
11222;SDS011;5668;52.012;8.724;2023-04-06T07:58:41;7.93;;;7.17;;
11222;SDS011;5668;52.012;8.724;2023-04-06T08:01:08;8.47;;;7.57;;
11222;SDS011;5668;52.012;8.724;2023-04-06T08:03:36;7.70;;;7.00;;
11222;SDS011;5668;52.012;8.724;2023-04-06T08:06:03;9.10;;;7.07;;
11222;SDS011;5668;52.012;8.724;2023-04-06T08:08:31;9.07;;;7.43;;
11222;SDS011;5668;52.012;8.724;2023-04-06T08:10:58;8.87;;;7.27;;
11222;SDS011;5668;52.012;8.724;2023-04-06T08:13:27;8.77;;;7.57;;
11222;SDS011;5668;52.012;8.724;2023-04-06T08:15:56;8.10;;;7.27;;
11222;SDS011;5668;52.012;8.724;2023-04-06T08:18:25;8.50;;;7.60;;
11222;SDS011;5668;52.012;8.724;2023-04-06T08:20:52;8.43;;;7.50;;
11222;SDS011;5668;52.012;8.724;2023-04-06T08:23:20;11.07;;;8.20;;
11222;SDS011;5668;52.012;8.724;2023-04-06T08:25:47;9.10;;;8.20;;
11222;SDS011;5668;52.012;8.724;2023-04-06T08:28:15;8.00;;;7.30;;
11222;SDS011;5668;52.012;8.724;2023-04-06T08:30:42;7.40;;;6.70;;
11222;SDS011;5668;52.012;8.724;2023-04-06T08:33:11;7.63;;;6.77;;
11222;SDS011;5668;52.012;8.724;2023-04-06T08:35:38;9.83;;;7.27;;
11222;SDS011;5668;52.012;8.724;2023-04-06T08:38:05;7.90;;;7.20;;
11222;SDS011;5668;52.012;8.724;2023-04-06T08:40:35;8.07;;;6.47;;
11222;SDS011;5668;52.012;8.724;2023-04-06T08:43:03;8.33;;;7.47;;
11222;SDS011;5668;52.012;8.724;2023-04-06T08:45:36;8.93;;;7.00;;
11222;SDS011;5668;52.012;8.724;2023-04-06T08:48:04;8.00;;;6.60;;
11222;SDS011;5668;52.012;8.724;2023-04-06T08:50:33;9.13;;;6.83;;
11222;SDS011;5668;52.012;8.724;2023-04-06T08:53:02;7.93;;;6.60;;
11222;SDS011;5668;52.012;8.724;2023-04-06T08:55:29;7.13;;;6.37;;
11222;SDS011;5668;52.012;8.724;2023-04-06T08:57:56;8.13;;;6.50;;
11222;SDS011;5668;52.012;8.724;2023-04-06T09:00:25;8.43;;;6.60;;
11222;SDS011;5668;52.012;8.724;2023-04-06T09:02:53;7.73;;;6.67;;
11222;SDS011;5668;52.012;8.724;2023-04-06T09:05:22;9.33;;;7.20;;
11222;SDS011;5668;52.012;8.724;2023-04-06T09:07:52;8.17;;;7.10;;
11222;SDS011;5668;52.012;8.724;2023-04-06T09:10:20;7.33;;;6.43;;
11222;SDS011;5668;52.012;8.724;2023-04-06T09:12:50;7.40;;;6.50;;
11222;SDS011;5668;52.012;8.724;2023-04-06T09:15:28;6.67;;;5.93;;
11222;SDS011;5668;52.012;8.724;2023-04-06T09:17:55;7.90;;;6.83;;
11222;SDS011;5668;52.012;8.724;2023-04-06T09:20:23;8.87;;;6.97;;
11222;SDS011;5668;52.012;8.724;2023-04-06T09:22:54;8.77;;;6.50;;
11222;SDS011;5668;52.012;8.724;2023-04-06T09:25:22;7.97;;;6.57;;
11222;SDS011;5668;52.012;8.724;2023-04-06T09:27:57;7.50;;;6.70;;
11222;SDS011;5668;52.012;8.724;2023-04-06T09:30:26;7.80;;;6.20;;
11222;SDS011;5668;52.012;8.724;2023-04-06T09:32:54;8.33;;;6.37;;
11222;SDS011;5668;52.012;8.724;2023-04-06T09:35:22;8.90;;;6.23;;
11222;SDS011;5668;52.012;8.724;2023-04-06T09:37:52;6.87;;;6.23;;
11222;SDS011;5668;52.012;8.724;2023-04-06T09:40:21;7.57;;;6.33;;
11222;SDS011;5668;52.012;8.724;2023-04-06T09:42:49;10.03;;;6.90;;
11222;SDS011;5668;52.012;8.724;2023-04-06T09:45:19;8.40;;;6.40;;
11222;SDS011;5668;52.012;8.724;2023-04-06T09:47:46;6.23;;;5.30;;
11222;SDS011;5668;52.012;8.724;2023-04-06T09:50:15;7.80;;;6.77;;
11222;SDS011;5668;52.012;8.724;2023-04-06T09:52:46;9.50;;;7.03;;
11222;SDS011;5668;52.012;8.724;2023-04-06T09:55:17;8.67;;;7.33;;
11222;SDS011;5668;52.012;8.724;2023-04-06T09:57:50;9.00;;;7.30;;
11222;SDS011;5668;52.012;8.724;2023-04-06T10:00:21;7.37;;;6.60;;
11222;SDS011;5668;52.012;8.724;2023-04-06T10:02:53;7.83;;;6.87;;
11222;SDS011;5668;52.012;8.724;2023-04-06T10:05:26;8.67;;;6.67;;
11222;SDS011;5668;52.012;8.724;2023-04-06T10:08:00;9.17;;;7.30;;
11222;SDS011;5668;52.012;8.724;2023-04-06T10:10:34;7.97;;;6.93;;
11222;SDS011;5668;52.012;8.724;2023-04-06T10:13:02;8.33;;;7.00;;
11222;SDS011;5668;52.012;8.724;2023-04-06T10:15:31;8.17;;;7.13;;
11222;SDS011;5668;52.012;8.724;2023-04-06T10:17:59;8.00;;;7.20;;
11222;SDS011;5668;52.012;8.724;2023-04-06T10:20:29;9.20;;;7.77;;
11222;SDS011;5668;52.012;8.724;2023-04-06T10:23:04;11.17;;;8.37;;
11222;SDS011;5668;52.012;8.724;2023-04-06T10:25:36;10.43;;;7.73;;
11222;SDS011;5668;52.012;8.724;2023-04-06T10:28:04;10.20;;;7.93;;
11222;SDS011;5668;52.012;8.724;2023-04-06T10:30:33;9.33;;;8.03;;
11222;SDS011;5668;52.012;8.724;2023-04-06T10:33:01;10.23;;;8.60;;
11222;SDS011;5668;52.012;8.724;2023-04-06T10:35:39;9.53;;;8.03;;
11222;SDS011;5668;52.012;8.724;2023-04-06T10:38:07;9.40;;;8.40;;
11222;SDS011;5668;52.012;8.724;2023-04-06T10:40:36;8.97;;;7.33;;
11222;SDS011;5668;52.012;8.724;2023-04-06T10:43:09;8.33;;;7.43;;
11222;SDS011;5668;52.012;8.724;2023-04-06T10:45:37;11.10;;;8.10;;
11222;SDS011;5668;52.012;8.724;2023-04-06T10:48:15;9.70;;;8.27;;
11222;SDS011;5668;52.012;8.724;2023-04-06T10:50:44;8.37;;;7.53;;
11222;SDS011;5668;52.012;8.724;2023-04-06T10:53:20;8.13;;;7.23;;
11222;SDS011;5668;52.012;8.724;2023-04-06T10:55:50;9.23;;;7.40;;
11222;SDS011;5668;52.012;8.724;2023-04-06T10:58:18;8.27;;;7.43;;
11222;SDS011;5668;52.012;8.724;2023-04-06T11:00:47;7.50;;;6.80;;
11222;SDS011;5668;52.012;8.724;2023-04-06T11:03:15;8.73;;;7.70;;
11222;SDS011;5668;52.012;8.724;2023-04-06T11:05:43;8.60;;;7.70;;
11222;SDS011;5668;52.012;8.724;2023-04-06T11:08:21;8.63;;;7.37;;
11222;SDS011;5668;52.012;8.724;2023-04-06T11:10:50;9.57;;;8.10;;
11222;SDS011;5668;52.012;8.724;2023-04-06T11:13:18;9.30;;;8.30;;
11222;SDS011;5668;52.012;8.724;2023-04-06T11:15:45;8.93;;;8.00;;
11222;SDS011;5668;52.012;8.724;2023-04-06T11:18:16;9.63;;;8.18;;
11222;SDS011;5668;52.012;8.724;2023-04-06T11:20:47;8.00;;;6.80;;
11222;SDS011;5668;52.012;8.724;2023-04-06T11:23:21;9.02;;;8.13;;
11222;SDS011;5668;52.012;8.724;2023-04-06T11:25:52;9.63;;;7.00;;
11222;SDS011;5668;52.012;8.724;2023-04-06T11:28:20;7.63;;;6.80;;
11222;SDS011;5668;52.012;8.724;2023-04-06T11:30:47;6.88;;;6.18;;
11222;SDS011;5668;52.012;8.724;2023-04-06T11:33:19;7.82;;;6.63;;
11222;SDS011;5668;52.012;8.724;2023-04-06T11:35:47;9.43;;;7.00;;
11222;SDS011;5668;52.012;8.724;2023-04-06T11:38:14;8.68;;;7.05;;
11222;SDS011;5668;52.012;8.724;2023-04-06T11:40:44;9.60;;;7.57;;
11222;SDS011;5668;52.012;8.724;2023-04-06T11:43:12;8.95;;;6.97;;
11222;SDS011;5668;52.012;8.724;2023-04-06T11:45:41;7.35;;;6.65;;
11222;SDS011;5668;52.012;8.724;2023-04-06T11:48:17;8.32;;;7.13;;
11222;SDS011;5668;52.012;8.724;2023-04-06T11:50:47;7.07;;;6.22;;
11222;SDS011;5668;52.012;8.724;2023-04-06T11:53:14;7.80;;;6.22;;
11222;SDS011;5668;52.012;8.724;2023-04-06T11:55:41;8.75;;;7.05;;
11222;SDS011;5668;52.012;8.724;2023-04-06T11:58:13;7.82;;;6.80;;
11222;SDS011;5668;52.012;8.724;2023-04-06T12:00:41;7.45;;;6.72;;
11222;SDS011;5668;52.012;8.724;2023-04-06T12:03:10;9.10;;;6.93;;
11222;SDS011;5668;52.012;8.724;2023-04-06T12:05:37;7.68;;;6.88;;
11222;SDS011;5668;52.012;8.724;2023-04-06T12:08:05;9.00;;;6.97;;
11222;SDS011;5668;52.012;8.724;2023-04-06T12:10:32;9.27;;;7.18;;
11222;SDS011;5668;52.012;8.724;2023-04-06T12:12:59;8.00;;;7.20;;
11222;SDS011;5668;52.012;8.724;2023-04-06T12:15:28;9.27;;;7.50;;
11222;SDS011;5668;52.012;8.724;2023-04-06T12:17:55;8.68;;;7.82;;
11222;SDS011;5668;52.012;8.724;2023-04-06T12:20:22;7.95;;;7.03;;
11222;SDS011;5668;52.012;8.724;2023-04-06T12:22:50;7.53;;;6.47;;
11222;SDS011;5668;52.012;8.724;2023-04-06T12:25:17;8.18;;;7.38;;
11222;SDS011;5668;52.012;8.724;2023-04-06T12:27:45;8.13;;;7.32;;
11222;SDS011;5668;52.012;8.724;2023-04-06T12:30:12;8.60;;;7.70;;
11222;SDS011;5668;52.012;8.724;2023-04-06T12:32:41;7.70;;;6.90;;
11222;SDS011;5668;52.012;8.724;2023-04-06T12:35:09;7.57;;;6.88;;
11222;SDS011;5668;52.012;8.724;2023-04-06T12:37:40;9.73;;;8.25;;
11222;SDS011;5668;52.012;8.724;2023-04-06T12:40:09;7.88;;;7.10;;
11222;SDS011;5668;52.012;8.724;2023-04-06T12:42:39;8.02;;;6.28;;
11222;SDS011;5668;52.012;8.724;2023-04-06T12:45:07;10.07;;;8.20;;
11222;SDS011;5668;52.012;8.724;2023-04-06T12:47:35;8.82;;;7.57;;
11222;SDS011;5668;52.012;8.724;2023-04-06T12:50:05;9.23;;;7.13;;
11222;SDS011;5668;52.012;8.724;2023-04-06T12:52:34;10.32;;;7.97;;
11222;SDS011;5668;52.012;8.724;2023-04-06T12:55:01;8.32;;;7.20;;
11222;SDS011;5668;52.012;8.724;2023-04-06T12:57:30;10.45;;;6.82;;
11222;SDS011;5668;52.012;8.724;2023-04-06T12:59:57;8.85;;;7.30;;
11222;SDS011;5668;52.012;8.724;2023-04-06T13:02:25;7.38;;;6.68;;
11222;SDS011;5668;52.012;8.724;2023-04-06T13:04:52;10.20;;;8.18;;
11222;SDS011;5668;52.012;8.724;2023-04-06T13:07:21;9.57;;;7.60;;
11222;SDS011;5668;52.012;8.724;2023-04-06T13:09:48;9.73;;;6.93;;
11222;SDS011;5668;52.012;8.724;2023-04-06T13:12:16;9.05;;;6.90;;
11222;SDS011;5668;52.012;8.724;2023-04-06T13:14:44;9.93;;;7.15;;
11222;SDS011;5668;52.012;8.724;2023-04-06T13:17:15;7.70;;;6.90;;
11222;SDS011;5668;52.012;8.724;2023-04-06T13:19:43;9.68;;;6.30;;
11222;SDS011;5668;52.012;8.724;2023-04-06T13:22:10;6.70;;;5.68;;
11222;SDS011;5668;52.012;8.724;2023-04-06T13:24:39;5.63;;;5.03;;
11222;SDS011;5668;52.012;8.724;2023-04-06T13:27:06;7.18;;;6.10;;
11222;SDS011;5668;52.012;8.724;2023-04-06T13:29:33;7.60;;;5.80;;
11222;SDS011;5668;52.012;8.724;2023-04-06T13:32:02;9.02;;;6.68;;
11222;SDS011;5668;52.012;8.724;2023-04-06T13:34:30;6.70;;;5.88;;
11222;SDS011;5668;52.012;8.724;2023-04-06T13:36:57;6.20;;;5.55;;
11222;SDS011;5668;52.012;8.724;2023-04-06T13:39:24;7.57;;;5.68;;
11222;SDS011;5668;52.012;8.724;2023-04-06T13:41:55;7.75;;;6.35;;
11222;SDS011;5668;52.012;8.724;2023-04-06T13:44:22;7.78;;;6.43;;
11222;SDS011;5668;52.012;8.724;2023-04-06T13:46:49;9.20;;;6.97;;
11222;SDS011;5668;52.012;8.724;2023-04-06T13:49:17;7.63;;;6.82;;
11222;SDS011;5668;52.012;8.724;2023-04-06T13:51:44;8.85;;;7.65;;
11222;SDS011;5668;52.012;8.724;2023-04-06T13:54:11;9.00;;;7.85;;
11222;SDS011;5668;52.012;8.724;2023-04-06T13:56:39;8.30;;;7.38;;
11222;SDS011;5668;52.012;8.724;2023-04-06T13:59:07;8.32;;;7.03;;
11222;SDS011;5668;52.012;8.724;2023-04-06T14:01:34;8.25;;;7.43;;
11222;SDS011;5668;52.012;8.724;2023-04-06T14:04:02;8.45;;;7.40;;
11222;SDS011;5668;52.012;8.724;2023-04-06T14:06:30;7.47;;;6.50;;
11222;SDS011;5668;52.012;8.724;2023-04-06T14:08:57;10.32;;;7.55;;
11222;SDS011;5668;52.012;8.724;2023-04-06T14:11:25;8.65;;;7.70;;
11222;SDS011;5668;52.012;8.724;2023-04-06T14:13:52;9.52;;;7.43;;
11222;SDS011;5668;52.012;8.724;2023-04-06T14:16:21;8.70;;;6.93;;
11222;SDS011;5668;52.012;8.724;2023-04-06T14:18:49;10.25;;;8.35;;
11222;SDS011;5668;52.012;8.724;2023-04-06T14:21:17;8.10;;;7.20;;
11222;SDS011;5668;52.012;8.724;2023-04-06T14:23:45;9.57;;;8.50;;
11222;SDS011;5668;52.012;8.724;2023-04-06T14:26:12;15.02;;;9.52;;
11222;SDS011;5668;52.012;8.724;2023-04-06T14:28:40;15.35;;;10.32;;
11222;SDS011;5668;52.012;8.724;2023-04-06T14:31:11;14.23;;;10.00;;
11222;SDS011;5668;52.012;8.724;2023-04-06T14:33:42;15.07;;;9.40;;
11222;SDS011;5668;52.012;8.724;2023-04-06T14:36:10;12.70;;;9.60;;
11222;SDS011;5668;52.012;8.724;2023-04-06T14:38:37;11.52;;;8.98;;
11222;SDS011;5668;52.012;8.724;2023-04-06T14:41:06;10.40;;;8.85;;
11222;SDS011;5668;52.012;8.724;2023-04-06T14:43:33;9.32;;;8.27;;
11222;SDS011;5668;52.012;8.724;2023-04-06T14:46:01;9.75;;;8.70;;
11222;SDS011;5668;52.012;8.724;2023-04-06T14:48:28;10.30;;;8.82;;
11222;SDS011;5668;52.012;8.724;2023-04-06T14:50:57;11.85;;;9.60;;
11222;SDS011;5668;52.012;8.724;2023-04-06T14:53:24;10.00;;;8.63;;
11222;SDS011;5668;52.012;8.724;2023-04-06T14:55:52;11.57;;;9.80;;
11222;SDS011;5668;52.012;8.724;2023-04-06T14:58:20;11.88;;;8.60;;
11222;SDS011;5668;52.012;8.724;2023-04-06T15:00:48;11.73;;;9.02;;
11222;SDS011;5668;52.012;8.724;2023-04-06T15:03:20;13.23;;;9.55;;
11222;SDS011;5668;52.012;8.724;2023-04-06T15:05:50;11.93;;;9.93;;